Rockaway — WDH2443 — position and weather

sailwx.info

Track history (hours):
 
Tides and Currents Weather Stations Pressure Air Temp Water Temp Dewpoint Dewpoint Depression Visibility Wind Speed Wind Dir Waves Ship Positions

Rockaway

Owner: NEW YORK, CITY OF, BROOKLYN, NY. More information available from US FCC via Universal Licensing System and Coast Guard Vessel Documentation Center.

Last reported at 2018-Jun-19 18:55 UTC. Time now 2018-Jun-20 02:00 UTC.
Position N 40°44' W 073°57'.

Length 89 m.

MMSI: 367597650.

Date/timePositionNaut miles runAvg speedWind from/ knotsBaromVisibWave heightAir tempDewpointWater temp
2018-Jun-19 18:55N 40°44' W 073°57'3 6.9
2018-Jun-19 18:30N 40°42' W 073°60'611.1
2018-Jun-19 17:59N 40°39' W 074°06'3 5.9
2018-Jun-19 17:30N 40°41' W 074°08'2 3.1
2018-Jun-19 17:00N 40°43' W 074°07'0 0.0
2018-Jun-19 16:30N 40°43' W 074°07'0 0.0
2018-Jun-19 16:01N 40°43' W 074°07'0 0.0
2018-Jun-19 15:31N 40°43' W 074°07'0 0.4
2018-Jun-19 15:00N 40°43' W 074°07'4 8.3
2018-Jun-19 14:30N 40°39' W 074°09'510.7
2018-Jun-19 14:01N 40°40' W 074°02'5 9.7
2018-Jun-19 13:30N 40°44' W 073°58'1 0.0
2018-Jun-18 20:23N 40°44' W 073°57'1 2.1
2018-Jun-18 19:58N 40°44' W 073°58'2 5.2
2018-Jun-18 19:31N 40°42' W 073°60'4 8.6
2018-Jun-18 19:00N 40°39' W 074°04'4 6.2
2018-Jun-18 18:24N 40°41' W 074°08'2 5.2
2018-Jun-18 17:59N 40°43' W 074°07'0 0.0
2018-Jun-18 17:30N 40°43' W 074°07'0 0.0
2018-Jun-18 17:01N 40°43' W 074°07'0 0.0
2018-Jun-18 16:30N 40°43' W 074°07'0 0.1
2018-Jun-18 15:59N 40°43' W 074°07'4 4.8
2018-Jun-18 15:07N 40°39' W 074°05'1 8.7
2018-Jun-18 15:00N 40°40' W 074°03'4 7.8
2018-Jun-18 14:30N 40°42' W 073°60'3 0.1
2018-Jun-16 22:41N 40°44' W 073°57'1 4.0
2018-Jun-16 22:30N 40°44' W 073°58'1 0.6
2018-Jun-16 20:24N 40°45' W 073°57'3 7.7
2018-Jun-16 20:01N 40°43' W 073°59'4 7.3
2018-Jun-16 19:30N 40°40' W 074°01'1 2.1
2018-Jun-16 19:01N 40°39' W 074°02'0 0.0
2018-Jun-16 18:30N 40°39' W 074°02'0 0.0
2018-Jun-16 18:01N 40°39' W 074°02'0 0.0
2018-Jun-16 17:30N 40°39' W 074°02'2 3.2
2018-Jun-16 17:01N 40°39' W 074°04'1 0.3
2018-Jun-16 14:08N 40°39' W 074°05'1 7.4
2018-Jun-16 14:00N 40°39' W 074°04'4 8.6
2018-Jun-16 13:31N 40°42' W 074°00'3 0.1
2018-Jun-15 19:47N 40°44' W 073°58'2 7.2
2018-Jun-15 19:31N 40°42' W 073°59'4 8.3
2018-Jun-15 18:59N 40°39' W 074°03'4 6.9
2018-Jun-15 18:26N 40°40' W 074°08'2 5.4
2018-Jun-15 18:00N 40°43' W 074°07'0 0.0
2018-Jun-15 17:30N 40°43' W 074°07'0 0.0
2018-Jun-15 17:00N 40°43' W 074°07'0 0.0
2018-Jun-15 16:31N 40°43' W 074°07'0 0.0
2018-Jun-15 16:01N 40°43' W 074°07'4 6.9
2018-Jun-15 15:23N 40°39' W 074°09'3 6.1
2018-Jun-15 14:53N 40°39' W 074°05'3 9.0
2018-Jun-15 14:30N 40°41' W 074°01'4 7.5
2018-Jun-15 13:59N 40°44' W 073°58'1 0.0
2018-Jun-14 19:40N 40°44' W 073°57'1 3.9
2018-Jun-14 19:29N 40°44' W 073°58'4 7.8
2018-Jun-14 19:01N 40°41' W 074°01'610.0
2018-Jun-14 18:22N 40°39' W 074°08'410.5
2018-Jun-14 18:00N 40°42' W 074°07'1 1.4
2018-Jun-14 17:31N 40°43' W 074°07'0 0.0
2018-Jun-14 17:01N 40°43' W 074°07'0 0.0
2018-Jun-14 16:31N 40°43' W 074°07'0 0.0
2018-Jun-14 16:01N 40°43' W 074°07'0 0.0
2018-Jun-14 15:31N 40°43' W 074°07'4 7.9
2018-Jun-14 14:58N 40°39' W 074°09'3 6.7
2018-Jun-14 14:29N 40°39' W 074°05'4 8.7
2018-Jun-14 14:01N 40°42' W 074°00'3 0.1
2018-Jun-13 19:35N 40°44' W 073°58'0 5.7
2018-Jun-13 19:30N 40°43' W 073°58'4 8.8
2018-Jun-13 19:01N 40°40' W 074°02'5 9.5
2018-Jun-13 18:31N 40°39' W 074°08'4 8.5
2018-Jun-13 18:00N 40°43' W 074°07'0 0.0
2018-Jun-13 17:31N 40°43' W 074°07'0 0.0
2018-Jun-13 17:01N 40°43' W 074°07'0 0.0
2018-Jun-13 16:30N 40°43' W 074°07'0 0.0
2018-Jun-13 16:01N 40°43' W 074°07'4 4.6
2018-Jun-13 15:05N 40°39' W 074°09'2 8.2
2018-Jun-13 14:47N 40°39' W 074°05'2 8.7
2018-Jun-13 14:31N 40°40' W 074°03'5 9.9
2018-Jun-13 14:01N 40°44' W 073°58'0 0.0
2018-Jun-12 18:52N 40°44' W 073°58'3 7.3
2018-Jun-12 18:30N 40°42' W 074°00'5 9.0
2018-Jun-12 18:01N 40°39' W 074°05'3 5.4
2018-Jun-12 17:30N 40°40' W 074°08'3 5.5
2018-Jun-12 17:01N 40°43' W 074°07'0 0.0
2018-Jun-12 16:30N 40°43' W 074°07'0 0.0
2018-Jun-12 15:59N 40°43' W 074°07'0 0.0
2018-Jun-12 15:30N 40°43' W 074°07'0 0.0
2018-Jun-12 15:01N 40°43' W 074°07'3 6.8
2018-Jun-12 14:31N 40°39' W 074°09'3 6.4
2018-Jun-12 14:00N 40°39' W 074°04'510.2
2018-Jun-12 13:31N 40°42' W 073°59'1 0.0
2018-Jun-11 18:43N 40°42' W 074°00'210.1
2018-Jun-11 18:29N 40°40' W 074°02'5 9.0
2018-Jun-11 17:55N 40°39' W 074°09'4 9.8
2018-Jun-11 17:29N 40°43' W 074°07'0 0.4
2018-Jun-11 16:58N 40°43' W 074°07'0 0.0
2018-Jun-11 16:25N 40°43' W 074°07'0 0.0
2018-Jun-11 16:00N 40°43' W 074°07'0 0.0
2018-Jun-11 15:29N 40°43' W 074°07'3 7.1
2018-Jun-11 15:00N 40°39' W 074°09'3 6.2
2018-Jun-11 14:29N 40°39' W 074°04'610.9
2018-Jun-11 13:58N 40°43' W 073°59'2 0.1
2018-Jun-10 21:21N 40°44' W 073°57'1 3.2
2018-Jun-10 20:56N 40°45' W 073°57'3 1.2
2018-Jun-10 18:47N 40°47' W 073°55'2 8.7
2018-Jun-10 18:30N 40°46' W 073°57'510.5
2018-Jun-10 18:00N 40°41' W 074°01'3 5.4
2018-Jun-10 17:31N 40°39' W 074°02'0 0.0
2018-Jun-10 17:01N 40°39' W 074°02'0 0.0
2018-Jun-10 16:31N 40°39' W 074°02'0 0.0
2018-Jun-10 16:01N 40°39' W 074°02'2 4.8
2018-Jun-10 15:30N 40°39' W 074°05'2 3.9
2018-Jun-10 15:01N 40°38' W 074°08'0 0.0
2018-Jun-10 14:00N 40°38' W 074°08'2 3.5
2018-Jun-10 13:29N 40°39' W 074°05'5 9.9
2018-Jun-10 13:00N 40°42' W 074°00'  
Track history (hours):
 
Tides and Currents Weather Stations Pressure Air Temp Water Temp Dewpoint Dewpoint Depression Visibility Wind Speed Wind Dir Waves Ship Positions

Rockaway

Owner: NEW YORK, CITY OF, BROOKLYN, NY. More information available from US FCC via Universal Licensing System and Coast Guard Vessel Documentation Center.

Last reported at 2018-Jun-19 18:55 UTC. Time now 2018-Jun-20 02:00 UTC.
Position N 40°44' W 073°57'.

Length 89 m.

MMSI: 367597650.

Date/timePositionNaut miles runAvg speedWind from/ knotsBaromVisibWave heightAir tempDewpointWater temp
2018-Jun-19 18:55N 40°44' W 073°57'3 6.9
2018-Jun-19 18:30N 40°42' W 073°60'611.1
2018-Jun-19 17:59N 40°39' W 074°06'3 5.9
2018-Jun-19 17:30N 40°41' W 074°08'2 3.1
2018-Jun-19 17:00N 40°43' W 074°07'0 0.0
2018-Jun-19 16:30N 40°43' W 074°07'0 0.0
2018-Jun-19 16:01N 40°43' W 074°07'0 0.0
2018-Jun-19 15:31N 40°43' W 074°07'0 0.4
2018-Jun-19 15:00N 40°43' W 074°07'4 8.3
2018-Jun-19 14:30N 40°39' W 074°09'510.7
2018-Jun-19 14:01N 40°40' W 074°02'5 9.7
2018-Jun-19 13:30N 40°44' W 073°58'1 0.0
2018-Jun-18 20:23N 40°44' W 073°57'1 2.1
2018-Jun-18 19:58N 40°44' W 073°58'2 5.2
2018-Jun-18 19:31N 40°42' W 073°60'4 8.6
2018-Jun-18 19:00N 40°39' W 074°04'4 6.2
2018-Jun-18 18:24N 40°41' W 074°08'2 5.2
2018-Jun-18 17:59N 40°43' W 074°07'0 0.0
2018-Jun-18 17:30N 40°43' W 074°07'0 0.0
2018-Jun-18 17:01N 40°43' W 074°07'0 0.0
2018-Jun-18 16:30N 40°43' W 074°07'0 0.1
2018-Jun-18 15:59N 40°43' W 074°07'4 4.8
2018-Jun-18 15:07N 40°39' W 074°05'1 8.7
2018-Jun-18 15:00N 40°40' W 074°03'4 7.8
2018-Jun-18 14:30N 40°42' W 073°60'3 0.1
2018-Jun-16 22:41N 40°44' W 073°57'1 4.0
2018-Jun-16 22:30N 40°44' W 073°58'1 0.6
2018-Jun-16 20:24N 40°45' W 073°57'3 7.7
2018-Jun-16 20:01N 40°43' W 073°59'4 7.3
2018-Jun-16 19:30N 40°40' W 074°01'1 2.1
2018-Jun-16 19:01N 40°39' W 074°02'0 0.0
2018-Jun-16 18:30N 40°39' W 074°02'0 0.0
2018-Jun-16 18:01N 40°39' W 074°02'0 0.0
2018-Jun-16 17:30N 40°39' W 074°02'2 3.2
2018-Jun-16 17:01N 40°39' W 074°04'1 0.3
2018-Jun-16 14:08N 40°39' W 074°05'1 7.4
2018-Jun-16 14:00N 40°39' W 074°04'4 8.6
2018-Jun-16 13:31N 40°42' W 074°00'3 0.1
2018-Jun-15 19:47N 40°44' W 073°58'2 7.2
2018-Jun-15 19:31N 40°42' W 073°59'4 8.3
2018-Jun-15 18:59N 40°39' W 074°03'4 6.9
2018-Jun-15 18:26N 40°40' W 074°08'2 5.4
2018-Jun-15 18:00N 40°43' W 074°07'0 0.0
2018-Jun-15 17:30N 40°43' W 074°07'0 0.0
2018-Jun-15 17:00N 40°43' W 074°07'0 0.0
2018-Jun-15 16:31N 40°43' W 074°07'0 0.0
2018-Jun-15 16:01N 40°43' W 074°07'4 6.9
2018-Jun-15 15:23N 40°39' W 074°09'3 6.1
2018-Jun-15 14:53N 40°39' W 074°05'3 9.0
2018-Jun-15 14:30N 40°41' W 074°01'4 7.5
2018-Jun-15 13:59N 40°44' W 073°58'1 0.0
2018-Jun-14 19:40N 40°44' W 073°57'1 3.9
2018-Jun-14 19:29N 40°44' W 073°58'4 7.8
2018-Jun-14 19:01N 40°41' W 074°01'610.0
2018-Jun-14 18:22N 40°39' W 074°08'410.5
2018-Jun-14 18:00N 40°42' W 074°07'1 1.4
2018-Jun-14 17:31N 40°43' W 074°07'0 0.0
2018-Jun-14 17:01N 40°43' W 074°07'0 0.0
2018-Jun-14 16:31N 40°43' W 074°07'0 0.0
2018-Jun-14 16:01N 40°43' W 074°07'0 0.0
2018-Jun-14 15:31N 40°43' W 074°07'4 7.9
2018-Jun-14 14:58N 40°39' W 074°09'3 6.7
2018-Jun-14 14:29N 40°39' W 074°05'4 8.7
2018-Jun-14 14:01N 40°42' W 074°00'3 0.1
2018-Jun-13 19:35N 40°44' W 073°58'0 5.7
2018-Jun-13 19:30N 40°43' W 073°58'4 8.8
2018-Jun-13 19:01N 40°40' W 074°02'5 9.5
2018-Jun-13 18:31N 40°39' W 074°08'4 8.5
2018-Jun-13 18:00N 40°43' W 074°07'0 0.0
2018-Jun-13 17:31N 40°43' W 074°07'0 0.0
2018-Jun-13 17:01N 40°43' W 074°07'0 0.0
2018-Jun-13 16:30N 40°43' W 074°07'0 0.0
2018-Jun-13 16:01N 40°43' W 074°07'4 4.6
2018-Jun-13 15:05N 40°39' W 074°09'2 8.2
2018-Jun-13 14:47N 40°39' W 074°05'2 8.7
2018-Jun-13 14:31N 40°40' W 074°03'5 9.9
2018-Jun-13 14:01N 40°44' W 073°58'0 0.0
2018-Jun-12 18:52N 40°44' W 073°58'3 7.3
2018-Jun-12 18:30N 40°42' W 074°00'5 9.0
2018-Jun-12 18:01N 40°39' W 074°05'3 5.4
2018-Jun-12 17:30N 40°40' W 074°08'3 5.5
2018-Jun-12 17:01N 40°43' W 074°07'0 0.0
2018-Jun-12 16:30N 40°43' W 074°07'0 0.0
2018-Jun-12 15:59N 40°43' W 074°07'0 0.0
2018-Jun-12 15:30N 40°43' W 074°07'0 0.0
2018-Jun-12 15:01N 40°43' W 074°07'3 6.8
2018-Jun-12 14:31N 40°39' W 074°09'3 6.4
2018-Jun-12 14:00N 40°39' W 074°04'510.2
2018-Jun-12 13:31N 40°42' W 073°59'1 0.0
2018-Jun-11 18:43N 40°42' W 074°00'210.1
2018-Jun-11 18:29N 40°40' W 074°02'5 9.0
2018-Jun-11 17:55N 40°39' W 074°09'4 9.8
2018-Jun-11 17:29N 40°43' W 074°07'0 0.4
2018-Jun-11 16:58N 40°43' W 074°07'0 0.0
2018-Jun-11 16:25N 40°43' W 074°07'0 0.0
2018-Jun-11 16:00N 40°43' W 074°07'0 0.0
2018-Jun-11 15:29N 40°43' W 074°07'3 7.1
2018-Jun-11 15:00N 40°39' W 074°09'3 6.2
2018-Jun-11 14:29N 40°39' W 074°04'610.9
2018-Jun-11 13:58N 40°43' W 073°59'2 0.1
2018-Jun-10 21:21N 40°44' W 073°57'1 3.2
2018-Jun-10 20:56N 40°45' W 073°57'3 1.2
2018-Jun-10 18:47N 40°47' W 073°55'2 8.7
2018-Jun-10 18:30N 40°46' W 073°57'510.5
2018-Jun-10 18:00N 40°41' W 074°01'3 5.4
2018-Jun-10 17:31N 40°39' W 074°02'0 0.0
2018-Jun-10 17:01N 40°39' W 074°02'0 0.0
2018-Jun-10 16:31N 40°39' W 074°02'0 0.0
2018-Jun-10 16:01N 40°39' W 074°02'2 4.8
2018-Jun-10 15:30N 40°39' W 074°05'2 3.9
2018-Jun-10 15:01N 40°38' W 074°08'0 0.0
2018-Jun-10 14:00N 40°38' W 074°08'2 3.5
2018-Jun-10 13:29N 40°39' W 074°05'5 9.9
2018-Jun-10 13:00N 40°42' W 074°00'  

Dump ship's entire track history